createdAt,value
2022-09-26T00:01:43.585Z,71.70
2022-09-26T00:04:15.768Z,72.00
2022-09-26T00:06:43.932Z,73.00
2022-09-26T00:09:12.731Z,72.60
2022-09-26T00:11:41.550Z,71.90
2022-09-26T00:14:15.041Z,71.90
2022-09-26T00:16:43.312Z,71.50
2022-09-26T00:19:11.642Z,72.00
2022-09-26T00:21:40.232Z,73.30
2022-09-26T00:24:08.579Z,73.90
2022-09-26T00:26:38.206Z,75.20
2022-09-26T00:29:08.440Z,75.50
2022-09-26T00:31:41.224Z,75.20
2022-09-26T00:34:11.321Z,75.00
2022-09-26T00:36:39.623Z,74.90
2022-09-26T00:39:09.159Z,74.40
2022-09-26T00:41:41.532Z,73.70
2022-09-26T00:44:42.709Z,73.20
2022-09-26T00:47:33.884Z,72.60
2022-09-26T00:50:05.575Z,72.90
2022-09-26T00:52:37.730Z,73.30
2022-09-26T00:55:14.093Z,75.30
2022-09-26T00:57:46.611Z,75.20
2022-09-26T01:00:16.315Z,75.10
2022-09-26T01:02:48.091Z,75.00
2022-09-26T01:05:19.014Z,75.20
2022-09-26T01:07:47.859Z,74.60
2022-09-26T01:10:16.514Z,74.20
2022-09-26T01:12:44.896Z,75.00
2022-09-26T01:15:14.756Z,75.70
2022-09-26T01:17:46.775Z,76.20
2022-09-26T01:20:33.572Z,76.00
2022-09-26T01:23:37.987Z,76.60
2022-09-26T01:26:34.726Z,77.00
2022-09-26T01:29:43.077Z,76.60
2022-09-26T01:32:41.113Z,76.30
2022-09-26T01:35:16.107Z,75.70
2022-09-26T01:37:51.234Z,75.50
2022-09-26T01:40:27.408Z,75.50
2022-09-26T01:43:06.791Z,75.10
2022-09-26T01:45:45.264Z,75.60
2022-09-26T01:48:20.843Z,75.50
2022-09-26T01:50:54.501Z,75.50
2022-09-26T01:53:27.007Z,75.10
2022-09-26T01:56:07.721Z,75.00
2022-09-26T01:58:41.217Z,75.10
2022-09-26T02:01:13.688Z,75.40
2022-09-26T02:03:48.160Z,77.00
2022-09-26T02:06:22.115Z,78.80
2022-09-26T02:08:55.418Z,80.00
2022-09-26T02:11:25.615Z,80.90
2022-09-26T02:14:04.173Z,82.20
2022-09-26T02:16:38.471Z,82.50
2022-09-26T02:19:16.329Z,82.10
2022-09-26T02:21:45.258Z,82.60
2022-09-26T02:24:13.625Z,82.90
2022-09-26T02:26:43.222Z,82.70
2022-09-26T02:29:13.152Z,82.40
2022-09-26T02:31:48.558Z,82.00
2022-09-26T02:34:18.556Z,82.40
2022-09-26T02:36:46.750Z,81.60
2022-09-26T02:39:15.496Z,80.20
2022-09-26T02:41:52.336Z,79.40
2022-09-26T02:44:35.079Z,79.40
2022-09-26T02:47:27.644Z,79.40
2022-09-26T02:50:14.427Z,79.50
2022-09-26T02:52:52.394Z,79.50
2022-09-26T02:55:35.888Z,78.60
2022-09-26T02:58:10.578Z,78.60
2022-09-26T03:00:52.369Z,78.90
2022-09-26T03:03:26.913Z,78.60
2022-09-26T03:05:59.737Z,79.40
2022-09-26T03:08:30.272Z,79.20
2022-09-26T03:11:05.071Z,80.40
2022-09-26T03:13:36.519Z,81.40
2022-09-26T03:16:05.247Z,81.30
2022-09-26T03:18:39.683Z,80.10
2022-09-26T03:21:10.358Z,80.20
2022-09-26T03:23:39.601Z,80.30
2022-09-26T03:26:12.472Z,80.30
2022-09-26T03:28:50.265Z,80.00
2022-09-26T03:31:22.269Z,79.70
2022-09-26T03:34:00.377Z,79.10
2022-09-26T03:36:30.347Z,79.20
2022-09-26T03:38:58.568Z,79.20
2022-09-26T03:41:47.428Z,79.10
2022-09-26T03:44:27.362Z,79.40
2022-09-26T03:47:14.416Z,79.80
2022-09-26T03:49:44.994Z,79.30
2022-09-26T03:52:18.274Z,79.10
2022-09-26T03:54:46.882Z,79.40
2022-09-26T03:57:17.792Z,80.10
2022-09-26T03:59:51.359Z,80.30
2022-09-26T04:02:21.012Z,79.10
2022-09-26T04:04:56.111Z,79.10
2022-09-26T04:07:27.634Z,78.40
2022-09-26T04:09:58.954Z,77.70
2022-09-26T04:12:29.098Z,76.10
2022-09-26T04:14:57.300Z,75.90
2022-09-26T04:17:25.426Z,73.70
2022-09-26T04:19:53.635Z,74.30
2022-09-26T04:22:21.863Z,73.00
2022-09-26T04:24:51.737Z,72.20
2022-09-26T04:27:20.076Z,72.20
2022-09-26T04:29:48.429Z,73.20
2022-09-26T04:32:37.487Z,73.00
2022-09-26T04:35:25.394Z,71.50
2022-09-26T04:37:53.623Z,71.90
2022-09-26T04:40:23.447Z,70.60
2022-09-26T04:43:02.190Z,71.10
2022-09-26T04:45:30.166Z,72.10
2022-09-26T04:47:58.480Z,71.10
2022-09-26T04:50:26.946Z,69.80
2022-09-26T04:53:09.801Z,69.60
2022-09-26T04:55:46.619Z,71.10
2022-09-26T04:58:16.335Z,69.90
2022-09-26T05:00:45.391Z,69.10
2022-09-26T05:03:15.436Z,68.50
2022-09-26T05:05:45.106Z,67.50
2022-09-26T05:08:14.050Z,67.90
2022-09-26T05:10:42.371Z,70.40
2022-09-26T05:13:12.116Z,70.60
2022-09-26T05:15:41.643Z,69.70
2022-09-26T05:18:11.486Z,70.10
2022-09-26T05:20:40.876Z,69.00
2022-09-26T05:23:10.449Z,69.30
2022-09-26T05:25:57.896Z,68.50
2022-09-26T05:28:28.267Z,69.30
2022-09-26T05:30:56.885Z,69.20
2022-09-26T05:33:24.922Z,68.70
2022-09-26T05:35:54.760Z,68.90
2022-09-26T05:38:23.373Z,69.20
2022-09-26T05:40:56.650Z,69.30
2022-09-26T05:43:27.597Z,69.50
2022-09-26T05:46:00.922Z,69.30
2022-09-26T05:48:36.397Z,69.40
2022-09-26T05:51:09.913Z,69.40
2022-09-26T05:53:39.610Z,69.30
2022-09-26T05:56:09.098Z,68.80
2022-09-26T05:58:58.660Z,69.10
2022-09-26T06:01:46.874Z,69.10
2022-09-26T06:04:29.666Z,69.50
2022-09-26T06:07:16.176Z,69.40
2022-09-26T06:09:44.784Z,71.00
2022-09-26T06:12:20.204Z,71.30
2022-09-26T06:14:49.847Z,71.20
2022-09-26T06:17:17.902Z,71.60
2022-09-26T06:19:45.964Z,70.70
2022-09-26T06:22:13.963Z,70.20
2022-09-26T06:24:41.907Z,70.50
2022-09-26T06:27:13.343Z,71.90
2022-09-26T06:29:41.350Z,73.50
2022-09-26T06:32:10.861Z,74.80
2022-09-26T06:34:45.069Z,75.70
2022-09-26T06:37:37.149Z,75.80
2022-09-26T06:40:05.720Z,77.40
2022-09-26T06:42:37.963Z,79.00
2022-09-26T06:45:26.595Z,79.00
2022-09-26T06:48:24.574Z,79.10
2022-09-26T06:51:02.256Z,80.40
2022-09-26T06:53:31.868Z,81.30
2022-09-26T06:56:00.958Z,81.40
2022-09-26T06:58:29.504Z,81.80
2022-09-26T07:01:06.691Z,80.90
2022-09-26T07:04:17.204Z,79.00
2022-09-26T07:06:52.420Z,77.10
2022-09-26T07:09:20.712Z,78.60
2022-09-26T07:12:18.974Z,79.00
2022-09-26T07:14:51.431Z,78.30
2022-09-26T07:17:27.271Z,78.40
2022-09-26T07:20:08.209Z,77.90
2022-09-26T07:22:54.907Z,77.30
2022-09-26T07:25:23.249Z,76.20
2022-09-26T07:27:53.104Z,75.80
2022-09-26T07:30:26.466Z,76.00
2022-09-26T07:33:03.150Z,75.60
2022-09-26T07:35:39.541Z,76.00
2022-09-26T07:38:07.541Z,75.60
2022-09-26T07:40:35.706Z,74.30
2022-09-26T07:43:19.035Z,75.00
2022-09-26T07:46:09.796Z,74.00
2022-09-26T07:48:57.819Z,74.50
2022-09-26T07:51:46.197Z,74.50
2022-09-26T07:54:20.036Z,71.90
2022-09-26T07:56:57.251Z,71.00
2022-09-26T07:59:51.412Z,71.30
2022-09-26T08:02:38.459Z,71.70
2022-09-26T08:05:08.063Z,71.70
2022-09-26T08:07:38.167Z,71.60
2022-09-26T08:10:19.911Z,70.30
2022-09-26T08:13:23.456Z,69.80
2022-09-26T08:16:10.184Z,71.60
2022-09-26T08:18:42.439Z,72.10
2022-09-26T08:21:10.474Z,70.40
2022-09-26T08:23:40.896Z,69.60
2022-09-26T08:26:44.477Z,71.10
2022-09-26T08:29:34.988Z,71.80
2022-09-26T08:32:04.356Z,70.20
2022-09-26T08:34:35.305Z,72.00
2022-09-26T08:37:26.195Z,71.50
2022-09-26T08:40:18.735Z,70.00
2022-09-26T08:43:13.575Z,67.90
2022-09-26T08:46:25.836Z,67.80
2022-09-26T08:49:40.138Z,67.70
2022-09-26T08:52:24.753Z,67.50
2022-09-26T08:54:56.097Z,67.40
2022-09-26T08:57:34.844Z,64.60
2022-09-26T09:00:19.047Z,66.10
2022-09-26T09:03:03.295Z,66.60
2022-09-26T09:05:34.315Z,67.40
2022-09-26T09:08:10.149Z,64.60
2022-09-26T09:10:52.956Z,67.90
2022-09-26T09:13:41.232Z,65.40
2022-09-26T09:16:58.358Z,63.70
2022-09-26T09:19:57.067Z,62.50
2022-09-26T09:23:00.248Z,60.90
2022-09-26T09:25:33.896Z,61.90
2022-09-26T09:28:14.187Z,60.90
2022-09-26T09:30:49.333Z,64.70
2022-09-26T09:33:33.475Z,63.40
2022-09-26T09:36:21.943Z,60.70
2022-09-26T09:39:30.044Z,60.20
2022-09-26T09:42:07.804Z,61.10
2022-09-26T09:44:46.892Z,58.60
2022-09-26T09:47:19.288Z,59.70
2022-09-26T09:49:50.185Z,61.30
2022-09-26T09:52:32.386Z,61.30
2022-09-26T09:55:13.177Z,62.60
2022-09-26T09:58:00.214Z,61.70
2022-09-26T10:00:29.951Z,61.40
2022-09-26T10:03:26.112Z,62.50
2022-09-26T10:05:58.750Z,62.60
2022-09-26T10:08:42.624Z,63.50
2022-09-26T10:11:45.512Z,62.00
2022-09-26T10:14:28.792Z,59.70
2022-09-26T10:17:20.471Z,61.10
2022-09-26T10:20:40.797Z,60.70
2022-09-26T10:23:24.595Z,61.10
2022-09-26T10:25:59.939Z,59.30
2022-09-26T10:28:32.557Z,59.80
2022-09-26T10:31:05.209Z,57.10
2022-09-26T10:33:45.641Z,57.50
2022-09-26T10:36:22.269Z,59.80
2022-09-26T10:39:17.259Z,61.50
2022-09-26T10:41:50.879Z,65.70
2022-09-26T10:44:28.009Z,67.90
2022-09-26T10:47:13.578Z,70.00
2022-09-26T10:50:06.845Z,71.90
2022-09-26T10:52:58.633Z,72.90
2022-09-26T10:55:34.557Z,72.20
2022-09-26T10:58:13.517Z,68.50
2022-09-26T11:00:44.906Z,69.10
2022-09-26T11:03:23.744Z,74.60
2022-09-26T11:06:24.239Z,72.40
2022-09-26T11:09:02.981Z,72.30
2022-09-26T11:11:50.607Z,70.60
2022-09-26T11:14:29.081Z,67.80
2022-09-26T11:17:23.545Z,70.70
2022-09-26T11:19:57.517Z,67.00
2022-09-26T11:22:31.660Z,67.90
2022-09-26T11:25:08.256Z,69.20
2022-09-26T11:27:43.480Z,70.60
2022-09-26T11:30:19.461Z,74.70
2022-09-26T11:32:56.302Z,76.20
2022-09-26T11:35:53.494Z,74.60
2022-09-26T11:38:39.102Z,74.10
2022-09-26T11:41:39.581Z,72.20
2022-09-26T11:44:41.159Z,70.30
2022-09-26T11:47:56.443Z,72.10
2022-09-26T11:50:51.386Z,71.20
2022-09-26T11:53:53.495Z,72.10
2022-09-26T11:56:43.159Z,72.10
2022-09-26T11:59:30.263Z,75.00
2022-09-26T12:02:16.392Z,74.70
2022-09-26T12:05:04.003Z,76.90
2022-09-26T12:07:39.827Z,73.50
2022-09-26T12:10:26.208Z,72.40
2022-09-26T12:13:17.140Z,72.10
2022-09-26T12:15:53.527Z,73.60
2022-09-26T12:18:32.714Z,75.80
2022-09-26T12:21:17.073Z,76.10
2022-09-26T12:23:51.107Z,77.00
2022-09-26T12:26:27.369Z,77.10
2022-09-26T12:29:10.257Z,78.20
2022-09-26T12:31:52.237Z,76.90
2022-09-26T12:34:32.335Z,77.70
2022-09-26T12:37:14.424Z,77.30
2022-09-26T12:40:09.424Z,76.90
2022-09-26T12:42:54.515Z,78.00
2022-09-26T12:45:52.994Z,79.70
2022-09-26T12:48:39.028Z,82.00
2022-09-26T12:51:23.174Z,83.20
2022-09-26T12:54:17.279Z,83.10
2022-09-26T12:56:51.125Z,79.40
2022-09-26T12:59:39.782Z,82.70
2022-09-26T13:02:33.146Z,82.70
2022-09-26T13:05:19.663Z,83.10
2022-09-26T13:07:56.091Z,79.60
2022-09-26T13:10:38.557Z,78.20
2022-09-26T13:13:39.642Z,78.00
2022-09-26T13:16:20.128Z,78.70
2022-09-26T13:19:08.539Z,80.10
2022-09-26T13:22:16.727Z,80.80
2022-09-26T13:24:52.199Z,80.60
2022-09-26T13:27:34.534Z,82.20
2022-09-26T13:30:17.192Z,82.50
2022-09-26T13:32:59.973Z,81.40
2022-09-26T13:35:33.331Z,81.10
2022-09-26T13:38:56.552Z,80.10
2022-09-26T13:42:01.779Z,79.20
2022-09-26T13:44:54.797Z,80.60
2022-09-26T13:56:23.338Z,78.80
2022-09-26T13:59:08.717Z,79.60
2022-09-26T14:01:49.822Z,79.90
2022-09-26T14:04:46.215Z,80.50
2022-09-26T14:07:39.879Z,78.80
2022-09-26T14:10:20.584Z,76.80
2022-09-26T14:13:26.284Z,76.50
2022-09-26T14:16:59.521Z,76.10
2022-09-26T14:19:38.313Z,74.70
2022-09-26T14:22:33.133Z,76.20
2022-09-26T14:25:05.415Z,75.00
2022-09-26T14:27:49.097Z,75.30
2022-09-26T14:30:28.499Z,73.00
2022-09-26T14:33:15.280Z,72.10
2022-09-26T14:35:44.029Z,72.90
2022-09-26T14:38:17.848Z,71.60
2022-09-26T14:45:18.038Z,69.30
2022-09-26T14:48:59.230Z,69.50
2022-09-26T14:51:30.567Z,69.30
2022-09-26T14:54:02.607Z,71.90
2022-09-26T14:56:40.976Z,72.30
2022-09-26T14:59:29.269Z,69.90
2022-09-26T15:02:36.845Z,71.70
2022-09-26T15:05:14.690Z,71.90
2022-09-26T15:08:07.374Z,71.40
2022-09-26T15:10:43.389Z,70.70
2022-09-26T15:13:24.295Z,70.20
2022-09-26T15:16:00.860Z,70.50
2022-09-26T15:18:40.309Z,71.70
2022-09-26T15:21:22.283Z,71.70
2022-09-26T15:23:52.591Z,71.70
2022-09-26T15:26:23.608Z,72.20
2022-09-26T15:28:54.190Z,71.40
2022-09-26T15:31:36.896Z,72.80
2022-09-26T15:34:37.268Z,71.80
2022-09-26T15:37:20.986Z,70.10
2022-09-26T15:39:50.201Z,68.80
2022-09-26T15:43:17.105Z,67.00
2022-09-26T15:46:02.604Z,67.00
2022-09-26T15:48:34.525Z,67.40
2022-09-26T15:51:07.189Z,66.30
2022-09-26T15:53:41.601Z,66.70
2022-09-26T15:56:13.622Z,66.70
2022-09-26T15:58:47.894Z,65.90
2022-09-26T16:01:18.853Z,66.50
2022-09-26T16:03:55.889Z,66.70
2022-09-26T16:06:31.315Z,67.60
2022-09-26T16:09:07.794Z,66.90
2022-09-26T16:11:47.721Z,66.10
2022-09-26T16:14:26.742Z,66.80
2022-09-26T16:20:53.410Z,66.10
2022-09-26T16:24:23.002Z,64.80
2022-09-26T16:30:46.959Z,64.40
2022-09-26T16:34:16.455Z,64.70
2022-09-26T16:37:15.160Z,63.90
2022-09-26T16:39:59.590Z,64.10
2022-09-26T16:42:48.524Z,63.40
2022-09-26T16:45:24.197Z,63.20
2022-09-26T16:48:12.256Z,63.80
2022-09-26T16:51:00.765Z,63.10
2022-09-26T16:53:47.323Z,61.90
2022-09-26T16:56:22.807Z,61.80
2022-09-26T16:58:57.500Z,60.00
2022-09-26T17:01:55.868Z,61.70
2022-09-26T17:04:37.089Z,62.80
2022-09-26T17:07:24.209Z,61.70
2022-09-26T17:10:04.491Z,61.90
2022-09-26T17:13:04.484Z,61.10
2022-09-26T17:15:40.450Z,60.80
2022-09-26T17:18:22.327Z,60.00
2022-09-26T17:21:06.391Z,60.20
2022-09-26T17:23:43.754Z,60.80
2022-09-26T17:26:35.485Z,61.30
2022-09-26T17:29:06.221Z,60.70
2022-09-26T17:31:39.286Z,60.50
2022-09-26T17:34:14.614Z,60.80
2022-09-26T17:39:51.050Z,60.10
2022-09-26T17:42:48.515Z,59.10
2022-09-26T17:57:35.341Z,61.60
2022-09-26T18:00:58.209Z,60.70
2022-09-26T18:07:24.427Z,60.60
2022-09-26T18:09:55.581Z,60.10
2022-09-26T18:12:26.629Z,60.30
2022-09-26T18:14:57.416Z,59.30
2022-09-26T18:17:29.171Z,59.40
2022-09-26T18:20:14.713Z,59.80
2022-09-26T18:25:48.483Z,60.50
2022-09-26T18:28:27.951Z,59.80
2022-09-26T18:31:00.910Z,60.00
2022-09-26T18:33:37.888Z,60.00
2022-09-26T18:36:07.560Z,61.50
2022-09-26T18:38:39.185Z,61.60
2022-09-26T18:41:19.515Z,61.50
2022-09-26T18:43:52.293Z,61.40
2022-09-26T18:46:22.986Z,62.80
2022-09-26T18:49:20.423Z,65.40
2022-09-26T18:52:04.218Z,66.90
2022-09-26T18:54:37.220Z,70.90
2022-09-26T18:57:24.742Z,74.30
2022-09-26T18:59:54.283Z,75.40
2022-09-26T19:02:26.779Z,74.40
2022-09-26T19:04:58.900Z,76.20
2022-09-26T19:07:27.879Z,76.40
2022-09-26T19:10:05.456Z,76.70
2022-09-26T19:12:41.968Z,77.20
2022-09-26T19:16:02.404Z,78.20
2022-09-26T19:18:24.942Z,77.50
2022-09-26T19:20:56.190Z,76.80
2022-09-26T19:23:26.081Z,76.50
2022-09-26T19:26:09.113Z,75.80
2022-09-26T19:28:41.705Z,75.80
2022-09-26T19:31:47.624Z,74.60
2022-09-26T19:34:16.792Z,74.30
2022-09-26T19:36:55.745Z,73.20
2022-09-26T19:40:38.254Z,73.60
2022-09-26T19:43:23.292Z,74.50
2022-09-26T19:46:04.118Z,74.40
2022-09-26T19:48:38.964Z,74.70
2022-09-26T19:51:30.016Z,75.50
2022-09-26T19:54:25.035Z,75.60
2022-09-26T19:56:59.641Z,75.60
2022-09-26T19:59:32.246Z,76.50
2022-09-26T20:02:02.510Z,75.90
2022-09-26T20:04:37.248Z,75.50
2022-09-26T20:07:19.348Z,74.50
2022-09-26T20:09:51.101Z,74.10
2022-09-26T20:12:52.735Z,73.50
2022-09-26T20:15:35.489Z,73.80
2022-09-26T20:18:14.835Z,74.00
2022-09-26T20:21:07.129Z,74.20
2022-09-26T20:23:37.097Z,74.00
2022-09-26T20:26:13.087Z,74.40
2022-09-26T20:28:41.920Z,74.00
2022-09-26T20:31:20.638Z,74.60
2022-09-26T20:34:00.103Z,75.50
2022-09-26T20:36:32.155Z,76.30
2022-09-26T20:39:19.801Z,75.80
2022-09-26T20:42:09.826Z,77.10
2022-09-26T20:44:55.474Z,77.10
2022-09-26T20:47:25.746Z,78.60
2022-09-26T20:50:06.543Z,79.10
2022-09-26T20:52:38.030Z,79.30
2022-09-26T20:55:14.845Z,79.10
2022-09-26T20:57:43.530Z,81.50
2022-09-26T21:00:16.285Z,81.20
2022-09-26T21:02:46.755Z,81.50
2022-09-26T21:05:24.584Z,83.10
2022-09-26T21:08:11.161Z,81.70
2022-09-26T21:10:41.866Z,82.40
2022-09-26T21:16:27.989Z,82.60
2022-09-26T21:20:02.416Z,84.20
2022-09-26T21:23:13.709Z,82.70
2022-09-26T21:32:32.802Z,82.10
2022-09-26T21:36:23.519Z,82.50
2022-09-26T21:39:59.848Z,82.40
2022-09-26T21:43:13.464Z,82.10
2022-09-26T21:46:44.843Z,83.30
2022-09-26T21:49:54.928Z,84.70
2022-09-26T21:52:56.962Z,85.10
2022-09-26T21:56:07.345Z,86.60
2022-09-26T21:59:00.385Z,87.20
2022-09-26T22:01:54.928Z,87.50
2022-09-26T22:04:31.907Z,88.00
2022-09-26T22:07:14.683Z,87.90
2022-09-26T22:09:52.681Z,87.90
2022-09-26T22:12:24.861Z,87.20
2022-09-26T22:14:53.281Z,86.40
2022-09-26T22:17:21.565Z,86.70
2022-09-26T22:20:00.487Z,87.20
2022-09-26T22:22:38.239Z,87.40
2022-09-26T22:25:10.989Z,86.80
2022-09-26T22:27:55.349Z,85.80
2022-09-26T22:30:23.561Z,86.10
2022-09-26T22:32:54.803Z,87.80
2022-09-26T22:35:29.432Z,86.30
2022-09-26T22:38:11.198Z,86.50
2022-09-26T22:40:39.505Z,85.90
2022-09-26T22:43:09.360Z,85.80
2022-09-26T22:45:39.462Z,86.00
2022-09-26T22:48:07.686Z,85.40
2022-09-26T22:50:35.770Z,84.90
2022-09-26T22:53:03.831Z,84.70
2022-09-26T22:55:31.927Z,85.70
2022-09-26T22:58:00.009Z,85.30
2022-09-26T23:00:29.628Z,85.10
2022-09-26T23:03:01.119Z,84.90
2022-09-26T23:05:29.259Z,85.90
2022-09-26T23:07:57.390Z,85.70
2022-09-26T23:10:25.544Z,86.70
2022-09-26T23:12:53.795Z,86.70
2022-09-26T23:15:22.008Z,87.30
2022-09-26T23:17:54.688Z,87.30
2022-09-26T23:20:25.692Z,87.30
2022-09-26T23:22:56.013Z,87.20
2022-09-26T23:25:24.343Z,87.60
2022-09-26T23:27:52.363Z,88.90
2022-09-26T23:30:20.456Z,88.40
2022-09-26T23:32:49.292Z,88.70
2022-09-26T23:35:21.146Z,87.30
2022-09-26T23:37:49.275Z,87.80
2022-09-26T23:40:22.319Z,88.70
2022-09-26T23:42:50.542Z,89.60
2022-09-26T23:45:18.696Z,88.50
2022-09-26T23:47:46.843Z,89.00
2022-09-26T23:50:14.924Z,88.80
2022-09-26T23:52:48.831Z,89.10
2022-09-26T23:55:17.587Z,89.20
2022-09-26T23:57:45.856Z,89.90
